createdAt,value
2022-09-24T00:01:32.136Z,96148.84
2022-09-24T00:04:05.838Z,96142.97
2022-09-24T00:06:37.015Z,96151.69
2022-09-24T00:09:04.604Z,96115.94
2022-09-24T00:11:31.637Z,96123.59
2022-09-24T00:13:59.092Z,96157.31
2022-09-24T00:16:28.349Z,96146.44
2022-09-24T00:18:55.246Z,96139.63
2022-09-24T00:21:24.626Z,96146.56
2022-09-24T00:23:56.086Z,96121.50
2022-09-24T00:26:42.090Z,96073.38
2022-09-24T00:29:10.811Z,96119.94
2022-09-24T00:31:37.736Z,96133.25
2022-09-24T00:34:04.717Z,96107.69
2022-09-24T00:36:31.774Z,96082.22
2022-09-24T00:39:00.167Z,96095.19
2022-09-24T00:41:30.167Z,96077.38
2022-09-24T00:43:57.314Z,96101.06
2022-09-24T00:46:39.237Z,96132.72
2022-09-24T00:49:12.640Z,96125.09
2022-09-24T00:51:41.756Z,96092.63
2022-09-24T00:54:17.121Z,96107.03
2022-09-24T00:56:48.061Z,96061.97
2022-09-24T00:59:18.355Z,96110.84
2022-09-24T01:01:47.212Z,96092.75
2022-09-24T01:04:16.232Z,96113.59
2022-09-24T01:06:43.264Z,96096.31
2022-09-24T01:09:10.353Z,96093.16
2022-09-24T01:11:45.884Z,96109.13
2022-09-24T01:14:42.423Z,96081.53
2022-09-24T01:17:32.175Z,96091.66
2022-09-24T01:20:29.712Z,96109.00
2022-09-24T01:22:59.151Z,96106.31
2022-09-24T01:26:08.100Z,96081.72
2022-09-24T01:28:43.440Z,96100.53
2022-09-24T01:31:46.944Z,96096.38
2022-09-24T01:34:27.016Z,96081.53
2022-09-24T01:36:57.479Z,96091.59
2022-09-24T01:39:25.911Z,96103.53
2022-09-24T01:41:53.549Z,96103.06
2022-09-24T01:44:20.670Z,96086.78
2022-09-24T01:46:47.723Z,96094.75
2022-09-24T01:49:14.391Z,96065.84
2022-09-24T01:51:50.140Z,96085.47
2022-09-24T01:54:16.632Z,96073.19
2022-09-24T01:57:00.631Z,96074.03
2022-09-24T01:59:37.911Z,96071.28
2022-09-24T02:02:07.016Z,96052.31
2022-09-24T02:04:41.863Z,96044.91
2022-09-24T02:07:33.762Z,96045.69
2022-09-24T02:10:00.536Z,96066.75
2022-09-24T02:12:42.320Z,96067.50
2022-09-24T02:15:12.998Z,96054.38
2022-09-24T02:17:44.628Z,96066.75
2022-09-24T02:20:20.065Z,96057.94
2022-09-24T02:22:49.452Z,96061.41
2022-09-24T02:25:20.929Z,96057.25
2022-09-24T02:27:47.586Z,96019.72
2022-09-24T02:30:14.784Z,96040.25
2022-09-24T02:32:43.192Z,96047.06
2022-09-24T02:35:11.910Z,96042.34
2022-09-24T02:37:41.749Z,96022.22
2022-09-24T02:40:12.258Z,96045.72
2022-09-24T02:42:41.059Z,96028.84
2022-09-24T02:45:08.323Z,96033.88
2022-09-24T02:47:34.923Z,96029.72
2022-09-24T02:50:01.566Z,96012.38
2022-09-24T02:52:28.201Z,96005.25
2022-09-24T02:54:54.773Z,96016.38
2022-09-24T02:57:21.405Z,95974.75
2022-09-24T02:59:48.057Z,95973.13
2022-09-24T03:02:15.296Z,95970.06
2022-09-24T03:04:42.185Z,95986.69
2022-09-24T03:07:09.346Z,95982.03
2022-09-24T03:09:35.983Z,95999.81
2022-09-24T03:12:02.597Z,95968.44
2022-09-24T03:14:29.205Z,96007.44
2022-09-24T03:16:55.768Z,95945.69
2022-09-24T03:19:22.401Z,96008.28
2022-09-24T03:21:48.968Z,95975.50
2022-09-24T03:24:15.560Z,96006.09
2022-09-24T03:26:42.235Z,95965.34
2022-09-24T03:29:10.000Z,96012.88
2022-09-24T03:31:36.679Z,96010.91
2022-09-24T03:34:03.508Z,95958.16
2022-09-24T03:36:30.246Z,95983.75
2022-09-24T03:38:57.007Z,95999.06
2022-09-24T03:41:25.440Z,95997.91
2022-09-24T03:43:52.051Z,95963.34
2022-09-24T03:46:19.182Z,95998.66
2022-09-24T03:48:47.322Z,95987.09
2022-09-24T03:51:18.653Z,95976.84
2022-09-24T03:53:45.947Z,95961.13
2022-09-24T03:56:13.116Z,95961.72
2022-09-24T03:58:40.548Z,95992.22
2022-09-24T04:01:08.712Z,95974.47
2022-09-24T04:03:36.354Z,95983.22
2022-09-24T04:06:04.049Z,95950.25
2022-09-24T04:08:31.700Z,95977.81
2022-09-24T04:10:58.815Z,95979.19
2022-09-24T04:13:25.812Z,95997.09
2022-09-24T04:15:53.753Z,95959.84
2022-09-24T04:18:20.916Z,96000.47
2022-09-24T04:20:47.536Z,95971.72
2022-09-24T04:23:14.713Z,95997.50
2022-09-24T04:25:41.492Z,95965.78
2022-09-24T04:28:09.894Z,96006.38
2022-09-24T04:30:38.032Z,96002.09
2022-09-24T04:33:05.190Z,96004.06
2022-09-24T04:35:33.215Z,95998.13
2022-09-24T04:38:00.461Z,95947.63
2022-09-24T04:40:27.485Z,96016.53
2022-09-24T04:42:54.449Z,96008.78
2022-09-24T04:45:21.649Z,96015.91
2022-09-24T04:47:53.588Z,96020.84
2022-09-24T04:50:20.995Z,95995.03
2022-09-24T04:52:53.635Z,96004.66
2022-09-24T04:55:20.787Z,95991.50
2022-09-24T04:57:47.694Z,95949.16
2022-09-24T05:00:17.625Z,96017.31
2022-09-24T05:02:44.730Z,95962.59
2022-09-24T05:05:12.631Z,95996.00
2022-09-24T05:07:39.813Z,95997.25
2022-09-24T05:10:06.906Z,96003.16
2022-09-24T05:12:36.347Z,95963.28
2022-09-24T05:15:04.349Z,95952.91
2022-09-24T05:17:31.337Z,95901.69
2022-09-24T05:19:59.502Z,95987.81
2022-09-24T05:22:27.931Z,95938.56
2022-09-24T05:24:54.640Z,95963.84
2022-09-24T05:27:23.154Z,95929.59
2022-09-24T05:29:50.410Z,95985.88
2022-09-24T05:32:19.918Z,95963.13
2022-09-24T05:34:47.267Z,95994.41
2022-09-24T05:37:15.053Z,96006.47
2022-09-24T05:39:41.853Z,95955.22
2022-09-24T05:42:14.319Z,95995.13
2022-09-24T05:44:41.283Z,95972.09
2022-09-24T05:47:08.696Z,95981.59
2022-09-24T05:49:35.590Z,95984.31
2022-09-24T05:52:02.461Z,95995.16
2022-09-24T05:54:29.063Z,95931.25
2022-09-24T05:56:55.653Z,95978.56
2022-09-24T05:59:22.267Z,96000.47
2022-09-24T06:01:49.294Z,95947.19
2022-09-24T06:04:16.352Z,95940.34
2022-09-24T06:06:43.514Z,95960.06
2022-09-24T06:09:10.351Z,95945.53
2022-09-24T06:11:40.340Z,95941.09
2022-09-24T06:14:08.513Z,95962.56
2022-09-24T06:16:35.494Z,95948.81
2022-09-24T06:19:02.290Z,95969.94
2022-09-24T06:21:28.986Z,95957.91
2022-09-24T06:23:55.661Z,95975.28
2022-09-24T06:26:22.378Z,95950.94
2022-09-24T06:28:49.063Z,95983.31
2022-09-24T06:31:16.050Z,95996.50
2022-09-24T06:33:43.083Z,96004.28
2022-09-24T06:36:10.265Z,95996.03
2022-09-24T06:38:36.928Z,95961.97
2022-09-24T06:41:05.512Z,96007.28
2022-09-24T06:43:33.427Z,95980.88
2022-09-24T06:46:00.767Z,96013.88
2022-09-24T06:48:28.816Z,96000.56
2022-09-24T06:50:56.424Z,96009.84
2022-09-24T06:53:23.254Z,96008.94
2022-09-24T06:55:49.999Z,95985.91
2022-09-24T06:58:22.100Z,96014.19
2022-09-24T07:00:59.820Z,96006.13
2022-09-24T07:03:28.217Z,95985.28
2022-09-24T07:05:55.698Z,95986.22
2022-09-24T07:08:22.680Z,95987.59
2022-09-24T07:10:49.925Z,96006.34
2022-09-24T07:13:17.144Z,96016.34
2022-09-24T07:15:44.943Z,96000.22
2022-09-24T07:18:12.252Z,96011.06
2022-09-24T07:20:39.545Z,96016.78
2022-09-24T07:23:08.380Z,96013.78
2022-09-24T07:25:38.265Z,96020.13
2022-09-24T07:28:10.636Z,96006.28
2022-09-24T07:30:38.038Z,96017.66
2022-09-24T07:33:05.204Z,96017.84
2022-09-24T07:35:31.940Z,96021.31
2022-09-24T07:38:16.804Z,96022.38
2022-09-24T07:40:44.812Z,96023.69
2022-09-24T07:43:13.946Z,96032.09
2022-09-24T07:45:42.500Z,96013.25
2022-09-24T07:48:10.020Z,96023.84
2022-09-24T07:50:40.238Z,96004.72
2022-09-24T07:53:06.928Z,95971.84
2022-09-24T07:55:39.370Z,96019.66
2022-09-24T07:58:08.291Z,96028.00
2022-09-24T08:00:35.170Z,96027.75
2022-09-24T08:03:03.350Z,96030.09
2022-09-24T08:05:30.065Z,96025.94
2022-09-24T08:07:57.795Z,96028.22
2022-09-24T08:10:26.421Z,96023.34
2022-09-24T08:12:53.734Z,96021.44
2022-09-24T08:15:22.639Z,96030.78
2022-09-24T08:17:49.608Z,96019.53
2022-09-24T08:20:16.380Z,95994.06
2022-09-24T08:22:43.057Z,96022.69
2022-09-24T08:25:09.732Z,96027.50
2022-09-24T08:27:37.585Z,95989.72
2022-09-24T08:30:05.890Z,95989.50
2022-09-24T08:32:32.812Z,96035.44
2022-09-24T08:34:59.482Z,95990.50
2022-09-24T08:37:28.126Z,95997.00
2022-09-24T08:39:54.861Z,96024.06
2022-09-24T08:42:55.463Z,96031.47
2022-09-24T08:45:40.563Z,96025.28
2022-09-24T08:48:15.682Z,96024.28
2022-09-24T08:50:52.705Z,96033.84
2022-09-24T08:53:26.342Z,96031.56
2022-09-24T08:55:55.666Z,96024.88
2022-09-24T08:58:53.048Z,96031.06
2022-09-24T09:01:50.465Z,96036.22
2022-09-24T09:04:32.531Z,96038.25
2022-09-24T09:07:04.918Z,96038.69
2022-09-24T09:09:43.691Z,96034.91
2022-09-24T09:12:17.767Z,96037.94
2022-09-24T09:14:59.530Z,96035.22
2022-09-24T09:17:37.651Z,96032.06
2022-09-24T09:20:10.832Z,96031.97
2022-09-24T09:22:47.115Z,96039.53
2022-09-24T09:25:25.926Z,96014.72
2022-09-24T09:28:01.915Z,95991.97
2022-09-24T09:30:53.741Z,96006.72
2022-09-24T09:33:54.831Z,95996.56
2022-09-24T09:36:40.096Z,96030.44
2022-09-24T09:39:41.600Z,96034.63
2022-09-24T09:42:17.575Z,96041.56
2022-09-24T09:44:46.070Z,96001.56
2022-09-24T09:47:25.001Z,96020.44
2022-09-24T09:49:57.640Z,96022.13
2022-09-24T09:52:28.634Z,95991.66
2022-09-24T09:54:56.004Z,96028.41
2022-09-24T09:57:25.332Z,96023.91
2022-09-24T09:59:54.383Z,95991.78
2022-09-24T10:02:31.508Z,96017.16
2022-09-24T10:05:00.928Z,96021.19
2022-09-24T10:07:28.210Z,95998.31
2022-09-24T10:10:18.557Z,96024.22
2022-09-24T10:12:45.371Z,96028.78
2022-09-24T10:15:15.289Z,96033.38
2022-09-24T10:17:43.989Z,95995.16
2022-09-24T10:20:16.662Z,96038.88
2022-09-24T10:22:51.897Z,96014.91
2022-09-24T10:25:28.318Z,95985.56
2022-09-24T10:28:18.600Z,96004.97
2022-09-24T10:30:53.030Z,96010.91
2022-09-24T10:33:20.350Z,96002.91
2022-09-24T10:35:47.175Z,96004.19
2022-09-24T10:38:19.082Z,96027.88
2022-09-24T10:40:47.137Z,96033.75
2022-09-24T10:43:21.888Z,96035.38
2022-09-24T10:46:07.524Z,96033.97
2022-09-24T10:48:44.630Z,96031.75
2022-09-24T10:51:42.198Z,96023.78
2022-09-24T10:54:27.725Z,96029.41
2022-09-24T10:56:57.299Z,96027.69
2022-09-24T10:59:36.079Z,96026.75
2022-09-24T11:02:02.697Z,96016.91
2022-09-24T11:04:41.478Z,96016.69
2022-09-24T11:07:39.318Z,96012.50
2022-09-24T11:10:20.960Z,96006.78
2022-09-24T11:12:53.841Z,96017.88
2022-09-24T11:15:41.982Z,96014.84
2022-09-24T11:18:19.394Z,96006.75
2022-09-24T11:21:04.531Z,96007.41
2022-09-24T11:23:49.586Z,96012.19
2022-09-24T11:26:29.626Z,96007.97
2022-09-24T11:29:44.476Z,95998.91
2022-09-24T11:32:29.700Z,95998.63
2022-09-24T11:35:21.364Z,96009.81
2022-09-24T11:38:00.489Z,96009.81
2022-09-24T11:41:15.431Z,96003.78
2022-09-24T11:44:03.739Z,95998.00
2022-09-24T11:47:08.081Z,96004.69
2022-09-24T11:50:04.562Z,95965.03
2022-09-24T11:52:40.885Z,95996.28
2022-09-24T11:55:13.521Z,96004.69
2022-09-24T11:57:45.025Z,95991.06
2022-09-24T12:00:22.193Z,95955.88
2022-09-24T12:03:25.875Z,95991.94
2022-09-24T12:06:02.863Z,95991.19
2022-09-24T12:08:39.849Z,95948.66
2022-09-24T12:11:06.409Z,95992.75
2022-09-24T12:13:47.798Z,95954.09
2022-09-24T12:16:26.114Z,95989.66
2022-09-24T12:18:59.850Z,95976.09
2022-09-24T12:21:43.257Z,95991.88
2022-09-24T12:24:34.803Z,95940.94
2022-09-24T12:27:07.269Z,95986.75
2022-09-24T12:30:16.858Z,95988.25
2022-09-24T12:32:54.399Z,95988.59
2022-09-24T12:35:42.950Z,95982.31
2022-09-24T12:38:16.464Z,95986.44
2022-09-24T12:40:45.962Z,95985.84
2022-09-24T12:43:35.103Z,95973.47
2022-09-24T12:46:04.738Z,95982.81
2022-09-24T12:48:36.299Z,95985.66
2022-09-24T12:51:06.679Z,95962.34
2022-09-24T12:53:35.895Z,95982.53
2022-09-24T12:56:04.477Z,95988.59
2022-09-24T12:58:30.985Z,95972.13
2022-09-24T13:01:13.378Z,95970.59
2022-09-24T13:03:46.682Z,95953.66
2022-09-24T13:06:31.408Z,95983.56
2022-09-24T13:08:59.367Z,95977.50
2022-09-24T13:11:37.509Z,95991.59
2022-09-24T13:14:13.137Z,95987.28
2022-09-24T13:16:42.312Z,95967.84
2022-09-24T13:19:27.848Z,95981.41
2022-09-24T13:22:00.189Z,95944.56
2022-09-24T13:24:36.172Z,95934.88
2022-09-24T13:27:31.943Z,95964.53
2022-09-24T13:30:09.618Z,95967.69
2022-09-24T13:32:46.662Z,95973.97
2022-09-24T13:35:22.334Z,95951.72
2022-09-24T13:38:25.964Z,95960.72
2022-09-24T13:40:59.164Z,95973.78
2022-09-24T13:43:51.116Z,95949.59
2022-09-24T13:46:20.286Z,95943.66
2022-09-24T13:48:57.168Z,95973.34
2022-09-24T13:51:28.950Z,95958.59
2022-09-24T13:54:10.750Z,95964.00
2022-09-24T13:56:37.508Z,95951.06
2022-09-24T13:59:07.040Z,95944.94
2022-09-24T14:01:41.193Z,95954.09
2022-09-24T14:04:20.719Z,95967.84
2022-09-24T14:06:53.523Z,95929.28
2022-09-24T14:09:23.154Z,95965.09
2022-09-24T14:11:51.990Z,95957.16
2022-09-24T14:14:21.227Z,95945.88
2022-09-24T14:16:47.888Z,95947.69
2022-09-24T14:19:16.051Z,95954.16
2022-09-24T14:22:10.657Z,95951.84
2022-09-24T14:24:45.449Z,95946.03
2022-09-24T14:27:17.566Z,95927.63
2022-09-24T14:29:49.370Z,95959.84
2022-09-24T14:32:36.980Z,95952.63
2022-09-24T14:35:40.487Z,95935.25
2022-09-24T14:38:20.478Z,95947.88
2022-09-24T14:40:57.836Z,95927.63
2022-09-24T14:43:46.202Z,95955.84
2022-09-24T14:46:22.232Z,95921.53
2022-09-24T14:48:49.360Z,95958.66
2022-09-24T14:51:28.250Z,95930.91
2022-09-24T14:54:19.200Z,95924.34
2022-09-24T14:56:45.907Z,95930.38
2022-09-24T14:59:26.451Z,95959.22
2022-09-24T15:02:12.313Z,95928.13
2022-09-24T15:04:39.169Z,95923.25
2022-09-24T15:07:05.939Z,95902.78
2022-09-24T15:09:32.669Z,95919.38
2022-09-24T15:12:10.026Z,95927.69
2022-09-24T15:14:36.707Z,95918.59
2022-09-24T15:17:21.570Z,95947.28
2022-09-24T15:19:48.309Z,95920.84
2022-09-24T15:22:15.239Z,95952.06
2022-09-24T15:24:41.826Z,95932.00
2022-09-24T15:27:23.694Z,95947.84
2022-09-24T15:29:50.685Z,95909.69
2022-09-24T15:32:19.505Z,95912.91
2022-09-24T15:34:47.020Z,95923.59
2022-09-24T15:37:18.178Z,95920.41
2022-09-24T15:39:49.143Z,95891.34
2022-09-24T15:42:21.151Z,95885.38
2022-09-24T15:44:48.854Z,95898.38
2022-09-24T15:47:15.489Z,95914.75
2022-09-24T15:49:42.420Z,95911.97
2022-09-24T15:52:26.437Z,95910.75
2022-09-24T15:54:54.861Z,95901.34
2022-09-24T15:57:22.691Z,95918.13
2022-09-24T15:59:50.146Z,95893.19
2022-09-24T16:02:21.192Z,95923.03
2022-09-24T16:04:47.871Z,95891.13
2022-09-24T16:07:14.500Z,95920.63
2022-09-24T16:09:41.220Z,95876.00
2022-09-24T16:12:07.949Z,95890.03
2022-09-24T16:14:34.723Z,95898.44
2022-09-24T16:17:01.316Z,95892.50
2022-09-24T16:19:29.478Z,95907.31
2022-09-24T16:21:56.603Z,95921.44
2022-09-24T16:24:23.339Z,95940.91
2022-09-24T16:26:49.985Z,95894.09
2022-09-24T16:29:18.042Z,95882.78
2022-09-24T16:31:45.356Z,95937.78
2022-09-24T16:34:12.316Z,95900.97
2022-09-24T16:36:38.947Z,95911.00
2022-09-24T16:39:05.720Z,95950.31
2022-09-24T16:41:34.477Z,95926.69
2022-09-24T16:44:01.723Z,95930.22
2022-09-24T16:46:28.574Z,95948.66
2022-09-24T16:48:55.380Z,95932.28
2022-09-24T16:51:22.148Z,95915.41
2022-09-24T16:53:49.444Z,95943.72
2022-09-24T16:56:19.604Z,95923.63
2022-09-24T16:58:47.257Z,95950.09
2022-09-24T17:01:16.531Z,95943.88
2022-09-24T17:03:43.615Z,95897.25
2022-09-24T17:06:19.489Z,95945.22
2022-09-24T17:09:04.707Z,95914.09
2022-09-24T17:11:31.366Z,95910.81
2022-09-24T17:13:57.928Z,95920.25
2022-09-24T17:16:27.450Z,95904.97
2022-09-24T17:18:54.585Z,95898.47
2022-09-24T17:21:22.017Z,95925.19
2022-09-24T17:23:49.329Z,95943.69
2022-09-24T17:26:18.589Z,95944.81
2022-09-24T17:28:47.028Z,95905.00
2022-09-24T17:31:16.941Z,95946.63
2022-09-24T17:33:44.503Z,95885.31
2022-09-24T17:36:14.064Z,95942.81
2022-09-24T17:38:40.855Z,95903.34
2022-09-24T17:41:11.359Z,95944.47
2022-09-24T17:43:40.702Z,95940.50
2022-09-24T17:46:14.576Z,95918.84
2022-09-24T17:48:44.849Z,95928.84
2022-09-24T17:51:15.881Z,95958.66
2022-09-24T17:53:43.031Z,95937.41
2022-09-24T17:56:11.830Z,95948.78
2022-09-24T17:58:41.332Z,95961.53
2022-09-24T18:01:13.669Z,95938.81
2022-09-24T18:03:40.990Z,95964.91
2022-09-24T18:06:09.989Z,95965.66
2022-09-24T18:08:41.693Z,95924.19
2022-09-24T18:11:17.561Z,95877.34
2022-09-24T18:13:45.100Z,95941.13
2022-09-24T18:16:16.368Z,95959.50
2022-09-24T18:18:44.065Z,95956.00
2022-09-24T18:21:13.161Z,95948.47
2022-09-24T18:23:40.346Z,95932.81
2022-09-24T18:26:18.629Z,95982.06
2022-09-24T18:28:57.891Z,95988.19
2022-09-24T18:31:28.188Z,95986.59
2022-09-24T18:33:58.071Z,95988.22
2022-09-24T18:36:28.220Z,95990.78
2022-09-24T18:38:56.002Z,95987.91
2022-09-24T18:41:26.533Z,95958.84
2022-09-24T18:43:54.338Z,95970.28
2022-09-24T18:46:22.633Z,95978.16
2022-09-24T18:48:51.906Z,95928.31
2022-09-24T18:51:30.747Z,95985.59
2022-09-24T18:54:10.627Z,95977.91
2022-09-24T18:56:37.351Z,95954.81
2022-09-24T18:59:11.320Z,95986.44
2022-09-24T19:01:39.524Z,95989.34
2022-09-24T19:04:09.341Z,95990.81
2022-09-24T19:06:41.687Z,95987.53
2022-09-24T19:09:10.445Z,96000.97
2022-09-24T19:11:37.614Z,95993.69
2022-09-24T19:14:04.231Z,95976.66
2022-09-24T19:16:31.255Z,95929.91
2022-09-24T19:18:59.765Z,95948.38
2022-09-24T19:21:27.178Z,95982.94
2022-09-24T19:23:56.474Z,95977.63
2022-09-24T19:26:25.982Z,95983.44
2022-09-24T19:28:53.555Z,95987.69
2022-09-24T19:31:31.886Z,95978.03
2022-09-24T19:34:02.959Z,95950.66
2022-09-24T19:36:30.033Z,95961.78
2022-09-24T19:38:57.851Z,95946.72
2022-09-24T19:41:26.634Z,95965.69
2022-09-24T19:43:58.503Z,95981.53
2022-09-24T19:46:27.165Z,95983.06
2022-09-24T19:48:55.733Z,95976.09
2022-09-24T19:51:31.260Z,95953.13
2022-09-24T19:54:04.116Z,95947.56
2022-09-24T19:56:31.864Z,95978.56
2022-09-24T19:59:00.620Z,95977.72
2022-09-24T20:01:32.199Z,95970.13
2022-09-24T20:04:01.942Z,95974.97
2022-09-24T20:06:31.199Z,95937.53
2022-09-24T20:08:59.346Z,95964.19
2022-09-24T20:11:26.510Z,95968.81
2022-09-24T20:13:55.435Z,95979.75
2022-09-24T20:16:27.456Z,95966.91
2022-09-24T20:18:57.522Z,95981.53
2022-09-24T20:21:29.285Z,95977.81
2022-09-24T20:23:58.036Z,95978.00
2022-09-24T20:26:44.361Z,95948.59
2022-09-24T20:29:13.866Z,95972.34
2022-09-24T20:31:51.156Z,95969.81
2022-09-24T20:34:19.317Z,95910.94
2022-09-24T20:36:45.952Z,95939.44
2022-09-24T20:39:12.818Z,95916.69
2022-09-24T20:41:39.526Z,95975.59
2022-09-24T20:44:06.223Z,95940.75
2022-09-24T20:46:32.997Z,95913.28
2022-09-24T20:49:00.149Z,95952.53
2022-09-24T20:51:29.557Z,95949.56
2022-09-24T20:53:58.238Z,95938.56
2022-09-24T20:56:25.028Z,95945.06
2022-09-24T20:58:53.039Z,95981.56
2022-09-24T21:01:21.336Z,95970.13
2022-09-24T21:03:50.116Z,95951.31
2022-09-24T21:06:17.994Z,95973.63
2022-09-24T21:08:46.167Z,95979.81
2022-09-24T21:11:16.217Z,95973.75
2022-09-24T21:13:45.337Z,95979.50
2022-09-24T21:16:12.333Z,95953.44
2022-09-24T21:18:40.964Z,95983.91
2022-09-24T21:21:15.452Z,95930.81
2022-09-24T21:23:43.802Z,95976.56
2022-09-24T21:26:18.419Z,95979.41
2022-09-24T21:28:46.792Z,95985.38
2022-09-24T21:31:14.901Z,95906.63
2022-09-24T21:33:46.453Z,95985.72
2022-09-24T21:36:18.578Z,95925.94
2022-09-24T21:39:07.139Z,95980.53
2022-09-24T21:41:40.075Z,95942.56
2022-09-24T21:44:09.133Z,95991.31
2022-09-24T21:46:35.894Z,95962.69
2022-09-24T21:49:03.049Z,95950.69
2022-09-24T21:51:30.504Z,95993.25
2022-09-24T21:54:02.881Z,95999.81
2022-09-24T21:56:31.327Z,95977.63
2022-09-24T21:58:59.017Z,95983.78
2022-09-24T22:01:28.879Z,95936.84
2022-09-24T22:03:58.260Z,95995.22
2022-09-24T22:06:29.106Z,95944.31
2022-09-24T22:08:58.004Z,95991.28
2022-09-24T22:11:26.396Z,95983.47
2022-09-24T22:13:54.365Z,95954.69
2022-09-24T22:16:21.731Z,95967.91
2022-09-24T22:18:48.469Z,95964.41
2022-09-24T22:21:15.770Z,95982.28
2022-09-24T22:23:42.463Z,95981.28
2022-09-24T22:26:10.213Z,95982.06
2022-09-24T22:28:37.871Z,95927.06
2022-09-24T22:31:10.529Z,95981.22
2022-09-24T22:33:55.994Z,95972.50
2022-09-24T22:36:23.630Z,95972.16
2022-09-24T22:38:54.807Z,95947.97
2022-09-24T22:41:21.555Z,95990.47
2022-09-24T22:43:48.308Z,95991.22
2022-09-24T22:46:16.130Z,95944.78
2022-09-24T22:48:47.554Z,95944.13
2022-09-24T22:51:16.567Z,95924.00
2022-09-24T22:53:43.556Z,95955.25
2022-09-24T22:56:13.252Z,95915.75
2022-09-24T22:59:06.860Z,95931.34
2022-09-24T23:01:39.243Z,95823.06
2022-09-24T23:04:08.822Z,95947.00
2022-09-24T23:06:49.055Z,95873.19
2022-09-24T23:13:10.981Z,95853.06
2022-09-24T23:15:37.609Z,95939.28
2022-09-24T23:18:04.220Z,95972.31
2022-09-24T23:20:30.848Z,95945.91
2022-09-24T23:22:58.368Z,95959.97
2022-09-24T23:25:25.007Z,95956.88
2022-09-24T23:27:51.690Z,95977.34
2022-09-24T23:30:18.317Z,95957.34
2022-09-24T23:32:44.980Z,95969.00
2022-09-24T23:35:11.574Z,95949.41
2022-09-24T23:37:38.153Z,95913.09
2022-09-24T23:40:05.229Z,95977.47
2022-09-24T23:42:31.972Z,95967.56
2022-09-24T23:44:58.641Z,95944.25
2022-09-24T23:47:25.241Z,95940.06
2022-09-24T23:49:51.901Z,95910.13
2022-09-24T23:52:18.544Z,95975.91
2022-09-24T23:54:48.174Z,95975.47
2022-09-24T23:57:17.872Z,95938.97
2022-09-24T23:59:49.130Z,95936.00
